createdAt,value
2022-11-14T00:01:23.272Z,65.50
2022-11-14T00:03:52.796Z,65.40
2022-11-14T00:06:20.242Z,65.40
2022-11-14T00:08:47.497Z,65.50
2022-11-14T00:11:17.211Z,65.40
2022-11-14T00:13:45.204Z,65.50
2022-11-14T00:16:12.573Z,65.50
2022-11-14T00:18:40.166Z,65.50
2022-11-14T00:21:09.857Z,65.50
2022-11-14T00:23:37.095Z,65.50
2022-11-14T00:26:06.502Z,65.50
2022-11-14T00:28:33.889Z,65.50
2022-11-14T00:31:01.320Z,65.50
2022-11-14T00:33:28.598Z,65.60
2022-11-14T00:35:57.022Z,65.60
2022-11-14T00:38:24.394Z,65.60
2022-11-14T00:40:51.996Z,65.60
2022-11-14T00:43:19.363Z,65.70
2022-11-14T00:45:47.789Z,65.70
2022-11-14T00:48:15.818Z,65.80
2022-11-14T00:50:43.806Z,65.90
2022-11-14T00:53:13.857Z,66.00
2022-11-14T00:55:42.639Z,66.10
2022-11-14T00:58:10.013Z,66.20
2022-11-14T01:00:37.491Z,66.00
2022-11-14T01:03:04.817Z,66.10
2022-11-14T01:05:34.594Z,66.10
2022-11-14T01:08:01.927Z,66.10
2022-11-14T01:10:29.462Z,66.10
2022-11-14T01:12:56.730Z,66.10
2022-11-14T01:15:26.425Z,66.00
2022-11-14T01:17:53.729Z,66.00
2022-11-14T01:20:23.146Z,65.90
2022-11-14T01:22:52.765Z,65.90
2022-11-14T01:25:20.046Z,65.90
2022-11-14T01:27:47.340Z,65.90
2022-11-14T01:30:17.078Z,65.80
2022-11-14T01:32:46.555Z,65.80
2022-11-14T01:35:14.092Z,66.50
2022-11-14T01:37:41.484Z,66.00
2022-11-14T01:40:09.331Z,65.90
2022-11-14T01:42:36.596Z,66.00
2022-11-14T01:45:42.303Z,65.90
2022-11-14T01:48:20.074Z,66.00
2022-11-14T01:50:53.079Z,65.90
2022-11-14T01:53:20.442Z,65.80
2022-11-14T01:55:47.775Z,66.00
2022-11-14T01:58:16.636Z,65.90
2022-11-14T02:00:47.454Z,66.00
2022-11-14T02:03:16.083Z,66.10
2022-11-14T02:05:45.902Z,66.00
2022-11-14T02:08:15.508Z,66.00
2022-11-14T02:10:45.212Z,66.00
2022-11-14T02:13:14.921Z,65.90
2022-11-14T02:15:42.229Z,65.90
2022-11-14T02:18:09.562Z,65.90
2022-11-14T02:20:43.077Z,65.90
2022-11-14T02:23:12.029Z,65.90
2022-11-14T02:25:42.473Z,66.00
2022-11-14T02:28:12.739Z,65.90
2022-11-14T02:30:40.217Z,66.00
2022-11-14T02:33:11.615Z,66.00
2022-11-14T02:35:41.912Z,65.90
2022-11-14T02:38:11.595Z,66.30
2022-11-14T02:40:38.947Z,66.00
2022-11-14T02:43:06.426Z,65.90
2022-11-14T02:45:33.804Z,65.80
2022-11-14T02:48:01.172Z,65.80
2022-11-14T02:50:30.847Z,65.90
2022-11-14T02:52:58.206Z,65.80
2022-11-14T02:55:25.501Z,66.00
2022-11-14T02:57:52.791Z,66.00
2022-11-14T03:00:20.203Z,65.90
2022-11-14T03:02:47.564Z,65.90
2022-11-14T03:05:14.855Z,66.00
2022-11-14T03:07:42.188Z,66.00
2022-11-14T03:10:10.125Z,66.00
2022-11-14T03:12:38.102Z,66.00
2022-11-14T03:15:06.978Z,66.00
2022-11-14T03:17:35.317Z,65.90
2022-11-14T03:20:02.659Z,65.80
2022-11-14T03:22:29.956Z,65.90
2022-11-14T03:25:00.135Z,65.90
2022-11-14T03:27:27.471Z,65.90
2022-11-14T03:29:55.446Z,65.90
2022-11-14T03:32:22.758Z,65.90
2022-11-14T03:34:50.035Z,66.00
2022-11-14T03:37:22.101Z,65.90
2022-11-14T03:39:51.734Z,66.00
2022-11-14T03:42:19.017Z,65.90
2022-11-14T03:44:48.446Z,66.00
2022-11-14T03:47:15.719Z,66.00
2022-11-14T03:49:45.130Z,66.00
2022-11-14T03:52:14.738Z,66.00
2022-11-14T03:54:44.331Z,66.10
2022-11-14T03:57:11.631Z,66.10
2022-11-14T03:59:43.225Z,66.20
2022-11-14T04:02:10.521Z,66.20
2022-11-14T04:04:37.839Z,66.20
2022-11-14T04:07:05.681Z,66.30
2022-11-14T04:09:32.987Z,66.30
2022-11-14T04:12:00.266Z,66.80
2022-11-14T04:14:27.634Z,66.40
2022-11-14T04:16:59.859Z,66.40
2022-11-14T04:19:30.035Z,66.50
2022-11-14T04:22:01.797Z,66.50
2022-11-14T04:24:28.941Z,66.70
2022-11-14T04:26:58.695Z,66.90
2022-11-14T04:29:26.020Z,66.60
2022-11-14T04:31:53.293Z,66.60
2022-11-14T04:34:20.551Z,66.50
2022-11-14T04:36:51.214Z,66.70
2022-11-14T04:39:18.856Z,66.80
2022-11-14T04:41:48.385Z,66.80
2022-11-14T04:44:15.719Z,66.80
2022-11-14T04:46:45.427Z,66.80
2022-11-14T04:49:12.782Z,66.90
2022-11-14T04:51:40.092Z,66.90
2022-11-14T04:54:07.416Z,67.00
2022-11-14T04:56:34.804Z,67.00
2022-11-14T04:59:02.256Z,67.10
2022-11-14T05:01:29.624Z,67.10
2022-11-14T05:03:57.019Z,67.10
2022-11-14T05:06:26.672Z,67.00
2022-11-14T05:08:53.978Z,67.00
2022-11-14T05:11:25.329Z,67.00
2022-11-14T05:13:56.194Z,67.00
2022-11-14T05:16:23.560Z,67.10
2022-11-14T05:18:53.888Z,67.10
2022-11-14T05:21:21.181Z,67.20
2022-11-14T05:23:48.442Z,67.10
2022-11-14T05:26:19.279Z,67.00
2022-11-14T05:28:49.110Z,67.00
2022-11-14T05:31:19.292Z,67.10
2022-11-14T05:33:47.083Z,67.00
2022-11-14T05:36:16.691Z,67.00
2022-11-14T05:38:44.619Z,67.00
2022-11-14T05:41:17.489Z,67.00
2022-11-14T05:43:44.904Z,67.10
2022-11-14T05:46:14.403Z,67.00
2022-11-14T05:48:44.358Z,67.10
2022-11-14T05:51:14.332Z,67.00
2022-11-14T05:53:42.018Z,67.00
2022-11-14T05:56:12.658Z,67.00
2022-11-14T05:58:40.810Z,67.00
2022-11-14T06:01:17.113Z,67.00
2022-11-14T06:03:46.481Z,67.10
2022-11-14T06:06:19.110Z,67.10
2022-11-14T06:08:50.232Z,67.10
2022-11-14T06:11:22.023Z,67.00
2022-11-14T06:13:51.578Z,67.00
2022-11-14T06:16:19.758Z,67.10
2022-11-14T06:18:50.063Z,66.70
2022-11-14T06:21:20.291Z,66.80
2022-11-14T06:23:50.714Z,66.80
2022-11-14T06:26:24.721Z,66.90
2022-11-14T06:28:53.604Z,66.90
2022-11-14T06:31:23.127Z,66.90
2022-11-14T06:33:50.758Z,67.00
2022-11-14T06:36:18.583Z,67.00
2022-11-14T06:38:45.918Z,66.90
2022-11-14T06:41:14.689Z,67.00
2022-11-14T06:43:49.020Z,66.90
2022-11-14T06:46:18.627Z,66.90
2022-11-14T06:48:49.480Z,66.90
2022-11-14T06:51:19.505Z,67.00
2022-11-14T06:53:49.167Z,67.00
2022-11-14T06:56:20.704Z,67.00
2022-11-14T06:58:49.295Z,67.00
2022-11-14T07:01:27.641Z,67.10
2022-11-14T07:03:55.048Z,67.10
2022-11-14T07:06:27.047Z,67.10
2022-11-14T07:08:55.792Z,67.30
2022-11-14T07:11:27.727Z,67.30
2022-11-14T07:14:01.475Z,67.30
2022-11-14T07:16:36.744Z,67.30
2022-11-14T07:19:07.353Z,67.40
2022-11-14T07:21:35.249Z,67.30
2022-11-14T07:24:02.697Z,67.40
2022-11-14T07:26:30.014Z,67.40
2022-11-14T07:29:02.500Z,67.40
2022-11-14T07:31:30.649Z,67.60
2022-11-14T07:34:00.463Z,67.50
2022-11-14T07:36:28.620Z,67.50
2022-11-14T07:38:58.603Z,67.40
2022-11-14T07:41:28.266Z,67.30
2022-11-14T07:43:55.667Z,67.50
2022-11-14T07:46:22.978Z,67.50
2022-11-14T07:48:50.294Z,67.40
2022-11-14T07:51:20.265Z,67.20
2022-11-14T07:53:55.113Z,67.10
2022-11-14T07:56:26.037Z,66.90
2022-11-14T07:58:53.338Z,66.80
2022-11-14T08:01:20.854Z,66.70
2022-11-14T08:03:50.534Z,66.50
2022-11-14T08:06:20.035Z,66.30
2022-11-14T08:08:47.340Z,66.10
2022-11-14T08:11:23.044Z,66.10
2022-11-14T08:14:01.793Z,65.90
2022-11-14T08:16:29.058Z,65.90
2022-11-14T08:18:56.337Z,65.90
2022-11-14T08:21:23.609Z,65.70
2022-11-14T08:23:53.267Z,65.70
2022-11-14T08:26:20.598Z,65.70
2022-11-14T08:28:52.034Z,65.60
2022-11-14T08:31:19.488Z,65.60
2022-11-14T08:33:47.022Z,65.60
2022-11-14T08:36:14.266Z,65.50
2022-11-14T08:38:41.515Z,65.50
2022-11-14T08:41:08.957Z,65.50
2022-11-14T08:43:36.222Z,65.50
2022-11-14T08:46:05.244Z,65.60
2022-11-14T08:48:33.263Z,65.40
2022-11-14T08:51:05.792Z,65.30
2022-11-14T08:53:34.208Z,64.90
2022-11-14T08:56:01.680Z,65.10
2022-11-14T08:58:34.353Z,65.20
2022-11-14T09:01:06.014Z,65.20
2022-11-14T09:03:34.536Z,65.40
2022-11-14T09:06:05.658Z,65.60
2022-11-14T09:08:33.269Z,65.90
2022-11-14T09:11:05.173Z,66.00
2022-11-14T09:13:37.619Z,66.00
2022-11-14T09:16:05.229Z,65.80
2022-11-14T09:18:32.886Z,65.60
2022-11-14T09:21:07.032Z,65.50
2022-11-14T09:23:35.281Z,65.60
2022-11-14T09:26:07.355Z,65.60
2022-11-14T09:28:35.246Z,65.60
2022-11-14T09:31:09.721Z,65.90
2022-11-14T09:33:37.047Z,66.30
2022-11-14T09:36:07.072Z,66.30
2022-11-14T09:38:38.410Z,66.20
2022-11-14T09:41:08.716Z,65.80
2022-11-14T09:43:57.068Z,66.00
2022-11-14T09:46:28.287Z,65.70
2022-11-14T09:48:58.200Z,65.30
2022-11-14T09:51:44.567Z,65.50
2022-11-14T09:54:21.715Z,65.10
2022-11-14T09:56:49.222Z,64.50
2022-11-14T09:59:16.818Z,64.90
2022-11-14T10:02:24.610Z,65.40
2022-11-14T10:05:10.934Z,65.30
2022-11-14T10:08:22.660Z,65.10
2022-11-14T10:11:10.138Z,65.20
2022-11-14T10:14:06.555Z,64.50
2022-11-14T10:16:37.055Z,63.90
2022-11-14T10:19:10.886Z,63.90
2022-11-14T10:21:54.726Z,64.10
2022-11-14T10:24:48.743Z,64.00
2022-11-14T10:27:36.136Z,64.10
2022-11-14T10:30:16.892Z,63.40
2022-11-14T10:33:25.275Z,63.10
2022-11-14T10:36:15.316Z,63.30
2022-11-14T10:38:50.570Z,63.30
2022-11-14T10:41:41.593Z,63.40
2022-11-14T10:44:12.938Z,63.50
2022-11-14T10:46:46.917Z,64.10
2022-11-14T10:49:23.014Z,64.50
2022-11-14T10:51:59.780Z,65.10
2022-11-14T10:55:00.518Z,65.20
2022-11-14T10:57:29.198Z,64.80
2022-11-14T10:59:56.479Z,64.60
2022-11-14T11:02:23.795Z,64.20
2022-11-14T11:04:51.065Z,63.90
2022-11-14T11:07:42.823Z,63.70
2022-11-14T11:10:42.389Z,63.70
2022-11-14T11:13:14.084Z,63.70
2022-11-14T11:15:42.103Z,63.60
2022-11-14T11:18:24.227Z,64.10
2022-11-14T11:21:15.439Z,63.50
2022-11-14T11:23:54.170Z,63.50
2022-11-14T11:26:29.842Z,63.40
2022-11-14T11:29:05.319Z,63.50
2022-11-14T11:31:51.226Z,64.30
2022-11-14T11:34:31.480Z,65.10
2022-11-14T11:37:17.092Z,64.50
2022-11-14T11:39:54.798Z,64.60
2022-11-14T11:43:06.193Z,64.50
2022-11-14T11:45:18.401Z,64.50
2022-11-14T11:47:59.738Z,64.20
2022-11-14T11:50:27.202Z,64.00
2022-11-14T11:53:24.193Z,64.40
2022-11-14T11:55:56.310Z,64.30
2022-11-14T11:58:32.960Z,65.00
2022-11-14T12:01:00.269Z,63.90
2022-11-14T12:03:28.154Z,63.90
2022-11-14T12:06:15.664Z,64.30
2022-11-14T12:09:03.919Z,64.10
2022-11-14T12:11:34.617Z,64.30
2022-11-14T12:14:32.102Z,64.70
2022-11-14T12:17:44.608Z,64.80
2022-11-14T12:20:14.842Z,64.10
2022-11-14T12:23:19.503Z,63.40
2022-11-14T12:26:05.364Z,63.50
2022-11-14T12:28:59.492Z,63.40
2022-11-14T12:31:31.654Z,63.40
2022-11-14T12:34:17.631Z,63.30
2022-11-14T12:36:46.352Z,63.70
2022-11-14T12:39:26.389Z,63.90
2022-11-14T12:42:05.287Z,63.90
2022-11-14T12:44:35.542Z,63.60
2022-11-14T12:47:05.833Z,63.50
2022-11-14T12:49:56.828Z,63.60
2022-11-14T12:52:48.600Z,63.40
2022-11-14T12:55:18.598Z,63.50
2022-11-14T12:57:49.980Z,63.30
2022-11-14T13:00:18.160Z,63.20
2022-11-14T13:02:55.031Z,63.20
2022-11-14T13:05:48.623Z,63.10
2022-11-14T13:08:49.445Z,63.00
2022-11-14T13:12:05.708Z,63.00
2022-11-14T13:15:10.741Z,62.90
2022-11-14T13:17:56.921Z,62.70
2022-11-14T13:20:51.649Z,62.50
2022-11-14T13:23:28.197Z,62.00
2022-11-14T13:26:10.940Z,61.90
2022-11-14T13:28:38.293Z,62.10
2022-11-14T13:31:17.569Z,61.90
2022-11-14T13:33:51.105Z,62.20
2022-11-14T13:36:45.588Z,61.80
2022-11-14T13:40:09.502Z,62.30
2022-11-14T13:42:55.163Z,62.10
2022-11-14T13:45:48.684Z,62.00
2022-11-14T13:48:37.311Z,62.30
2022-11-14T13:51:41.827Z,62.30
2022-11-14T13:54:14.717Z,62.50
2022-11-14T13:57:16.732Z,62.50
2022-11-14T14:00:18.489Z,62.40
2022-11-14T14:03:07.426Z,61.90
2022-11-14T14:06:20.841Z,62.30
2022-11-14T14:09:05.916Z,63.00
2022-11-14T14:11:53.807Z,63.10
2022-11-14T14:14:39.720Z,63.30
2022-11-14T14:17:27.550Z,63.40
2022-11-14T14:20:21.905Z,63.90
2022-11-14T14:23:01.097Z,63.60
2022-11-14T14:25:45.414Z,63.80
2022-11-14T14:28:49.394Z,63.80
2022-11-14T14:31:23.448Z,63.60
2022-11-14T14:33:52.318Z,63.30
2022-11-14T14:36:28.817Z,63.10
2022-11-14T14:39:25.304Z,63.00
2022-11-14T14:41:55.259Z,63.40
2022-11-14T14:44:24.513Z,63.40
2022-11-14T14:46:52.900Z,63.40
2022-11-14T14:49:24.855Z,63.00
2022-11-14T14:51:58.486Z,63.10
2022-11-14T14:54:29.763Z,63.30
2022-11-14T14:57:02.849Z,63.60
2022-11-14T14:59:33.321Z,63.90
2022-11-14T15:02:00.712Z,65.00
2022-11-14T15:04:29.894Z,65.10
2022-11-14T15:06:58.296Z,64.60
2022-11-14T15:09:27.943Z,64.80
2022-11-14T15:11:59.064Z,65.20
2022-11-14T15:14:30.045Z,65.10
2022-11-14T15:16:59.366Z,65.10
2022-11-14T15:19:35.818Z,65.20
2022-11-14T15:22:03.216Z,65.30
2022-11-14T15:24:33.237Z,65.30
2022-11-14T15:27:07.353Z,65.50
2022-11-14T15:29:34.718Z,65.60
2022-11-14T15:32:06.946Z,65.50
2022-11-14T15:34:40.434Z,65.60
2022-11-14T15:37:10.595Z,65.60
2022-11-14T15:39:38.483Z,65.80
2022-11-14T15:42:24.227Z,65.60
2022-11-14T15:44:51.608Z,65.70
2022-11-14T15:47:29.929Z,65.80
2022-11-14T15:50:31.995Z,65.70
2022-11-14T15:53:01.010Z,65.70
2022-11-14T15:55:30.643Z,65.70
2022-11-14T15:58:26.006Z,65.70
2022-11-14T16:00:57.587Z,65.80
2022-11-14T16:03:24.856Z,66.00
2022-11-14T16:05:52.164Z,65.90
2022-11-14T16:08:22.075Z,66.00
2022-11-14T16:10:49.318Z,65.90
2022-11-14T16:13:16.564Z,65.80
2022-11-14T16:15:43.940Z,66.00
2022-11-14T16:18:12.215Z,66.00
2022-11-14T16:20:39.782Z,66.00
2022-11-14T16:23:07.270Z,66.00
2022-11-14T16:25:34.787Z,66.00
2022-11-14T16:28:04.903Z,66.10
2022-11-14T16:30:32.198Z,66.10
2022-11-14T16:33:01.676Z,66.20
2022-11-14T16:35:31.427Z,66.30
2022-11-14T16:37:58.678Z,66.20
2022-11-14T16:40:27.819Z,66.30
2022-11-14T16:42:59.491Z,66.40
2022-11-14T16:45:26.949Z,66.40
2022-11-14T16:47:54.187Z,66.50
2022-11-14T16:50:21.525Z,66.20
2022-11-14T16:52:51.015Z,66.10
2022-11-14T16:55:18.448Z,66.20
2022-11-14T16:57:49.015Z,66.30
2022-11-14T17:00:16.831Z,66.40
2022-11-14T17:02:44.196Z,66.40
2022-11-14T17:05:11.548Z,66.30
2022-11-14T17:07:41.275Z,66.30
2022-11-14T17:10:08.949Z,67.00
2022-11-14T17:12:38.703Z,66.30
2022-11-14T17:15:06.529Z,66.20
2022-11-14T17:17:33.813Z,66.20
2022-11-14T17:20:01.158Z,66.20
2022-11-14T17:22:33.046Z,66.20
2022-11-14T17:25:00.313Z,66.30
2022-11-14T17:27:29.819Z,66.40
2022-11-14T17:29:59.531Z,66.40
2022-11-14T17:32:29.557Z,66.40
2022-11-14T17:34:56.910Z,66.40
2022-11-14T17:37:24.205Z,66.30
2022-11-14T17:39:51.486Z,66.40
2022-11-14T17:42:21.339Z,66.50
2022-11-14T17:44:48.631Z,66.40
2022-11-14T17:47:15.941Z,66.40
2022-11-14T17:49:45.957Z,66.40
2022-11-14T17:52:13.294Z,66.50
2022-11-14T17:54:43.031Z,66.50
2022-11-14T17:57:10.434Z,66.70
2022-11-14T17:59:38.888Z,66.60
2022-11-14T18:02:06.440Z,67.30
2022-11-14T18:04:33.778Z,66.80
2022-11-14T18:07:01.169Z,66.90
2022-11-14T18:09:29.482Z,67.10
2022-11-14T18:11:58.041Z,67.20
2022-11-14T18:14:27.829Z,67.10
2022-11-14T18:17:12.439Z,67.20
2022-11-14T18:19:40.449Z,67.10
2022-11-14T18:22:10.251Z,67.20
2022-11-14T18:24:37.563Z,67.40
2022-11-14T18:27:09.978Z,67.40
2022-11-14T18:29:39.603Z,67.50
2022-11-14T18:32:06.893Z,67.40
2022-11-14T18:34:36.978Z,67.50
2022-11-14T18:37:04.937Z,67.60
2022-11-14T18:39:32.349Z,67.50
2022-11-14T18:42:01.359Z,67.50
2022-11-14T18:44:31.041Z,67.50
2022-11-14T18:46:58.490Z,67.50
2022-11-14T18:49:28.413Z,67.50
2022-11-14T18:51:56.753Z,67.70
2022-11-14T18:54:24.486Z,67.70
2022-11-14T18:56:51.760Z,67.70
2022-11-14T18:59:21.385Z,67.80
2022-11-14T19:01:48.779Z,67.80
2022-11-14T19:04:19.760Z,67.90
2022-11-14T19:06:47.252Z,67.80
2022-11-14T19:09:16.493Z,67.70
2022-11-14T19:12:02.268Z,67.70
2022-11-14T19:14:32.442Z,67.70
2022-11-14T19:17:00.795Z,67.80
2022-11-14T19:19:30.736Z,67.90
2022-11-14T19:22:00.603Z,68.00
2022-11-14T19:24:27.880Z,68.10
2022-11-14T19:26:56.994Z,68.00
2022-11-14T19:29:28.610Z,68.00
2022-11-14T19:31:55.876Z,68.10
2022-11-14T19:34:23.135Z,68.00
2022-11-14T19:36:59.773Z,68.00
2022-11-14T19:39:29.952Z,68.00
2022-11-14T19:41:57.352Z,68.00
2022-11-14T19:44:24.760Z,68.20
2022-11-14T19:46:54.274Z,68.20
2022-11-14T19:49:21.638Z,68.10
2022-11-14T19:51:49.975Z,68.20
2022-11-14T19:54:17.905Z,68.10
2022-11-14T19:56:45.215Z,68.00
2022-11-14T19:59:14.995Z,68.10
2022-11-14T20:01:44.377Z,68.20
2022-11-14T20:04:13.278Z,68.40
2022-11-14T20:06:41.702Z,68.30
2022-11-14T20:09:12.882Z,68.30
2022-11-14T20:11:42.418Z,68.40
2022-11-14T20:14:14.324Z,68.50
2022-11-14T20:16:41.586Z,68.60
2022-11-14T20:19:09.022Z,68.50
2022-11-14T20:21:36.479Z,68.60
2022-11-14T20:24:06.787Z,68.40
2022-11-14T20:26:38.918Z,68.40
2022-11-14T20:29:08.465Z,68.50
2022-11-14T20:31:35.805Z,68.50
2022-11-14T20:34:03.142Z,68.60
2022-11-14T20:36:49.897Z,68.60
2022-11-14T20:39:17.851Z,68.70
2022-11-14T20:41:45.246Z,68.60
2022-11-14T20:44:15.037Z,68.60
2022-11-14T20:46:42.374Z,68.70
2022-11-14T20:49:10.346Z,68.70
2022-11-14T20:51:40.037Z,68.70
2022-11-14T20:54:08.911Z,68.80
2022-11-14T20:56:36.437Z,68.80
2022-11-14T20:59:03.871Z,68.70
2022-11-14T21:01:31.208Z,68.70
2022-11-14T21:03:58.580Z,68.50
2022-11-14T21:06:25.875Z,68.50
2022-11-14T21:08:53.193Z,68.50
2022-11-14T21:11:22.382Z,68.50
2022-11-14T21:13:59.770Z,68.60
2022-11-14T21:16:34.486Z,68.50
2022-11-14T21:19:02.883Z,68.40
2022-11-14T21:21:33.905Z,68.40
2022-11-14T21:24:01.293Z,68.30
2022-11-14T21:26:31.109Z,68.20
2022-11-14T21:29:01.085Z,68.10
2022-11-14T21:31:35.434Z,68.00
2022-11-14T21:34:13.575Z,67.90
2022-11-14T21:36:46.367Z,67.80
2022-11-14T21:39:17.501Z,67.90
2022-11-14T21:41:48.302Z,67.90
2022-11-14T21:44:17.374Z,68.00
2022-11-14T21:46:48.786Z,67.90
2022-11-14T21:49:16.433Z,67.90
2022-11-14T21:51:43.690Z,67.80
2022-11-14T21:54:11.125Z,67.80
2022-11-14T21:56:38.486Z,67.80
2022-11-14T21:59:13.057Z,67.70
2022-11-14T22:02:05.372Z,67.60
2022-11-14T22:04:33.009Z,67.50
2022-11-14T22:07:02.879Z,67.80
2022-11-14T22:09:30.785Z,67.20
2022-11-14T22:11:58.380Z,67.10
2022-11-14T22:14:25.677Z,67.00
2022-11-14T22:16:53.191Z,67.20
2022-11-14T22:19:20.498Z,66.90
2022-11-14T22:21:48.504Z,67.00
2022-11-14T22:24:15.917Z,67.00
2022-11-14T22:26:43.228Z,67.10
2022-11-14T22:29:10.532Z,67.00
2022-11-14T22:31:40.413Z,67.00
2022-11-14T22:34:11.407Z,67.00
2022-11-14T22:36:40.905Z,66.90
2022-11-14T22:39:13.256Z,67.00
2022-11-14T22:41:40.769Z,66.90
2022-11-14T22:44:11.007Z,66.80
2022-11-14T22:46:39.083Z,67.00
2022-11-14T22:49:06.418Z,67.00
2022-11-14T22:51:36.195Z,67.20
2022-11-14T22:54:03.561Z,67.20
2022-11-14T22:56:31.867Z,67.20
2022-11-14T22:59:00.648Z,67.20
2022-11-14T23:01:35.161Z,67.10
2022-11-14T23:04:04.745Z,67.00
2022-11-14T23:06:35.571Z,66.90
2022-11-14T23:09:05.761Z,66.80
2022-11-14T23:11:35.268Z,66.90
2022-11-14T23:14:02.567Z,66.80
2022-11-14T23:16:35.000Z,66.80
2022-11-14T23:19:04.207Z,66.60
2022-11-14T23:21:34.731Z,66.50
2022-11-14T23:24:07.042Z,66.50
2022-11-14T23:26:34.524Z,66.60
2022-11-14T23:29:01.925Z,66.50
2022-11-14T23:31:29.232Z,66.50
2022-11-14T23:33:58.994Z,66.50
2022-11-14T23:36:26.295Z,66.30
2022-11-14T23:38:53.981Z,66.20
2022-11-14T23:41:25.380Z,66.20
2022-11-14T23:43:52.777Z,66.20
2022-11-14T23:46:20.136Z,66.10
2022-11-14T23:48:50.788Z,66.10
2022-11-14T23:51:18.148Z,66.10
2022-11-14T23:53:46.843Z,66.10
2022-11-14T23:56:14.919Z,66.10
2022-11-14T23:58:46.711Z,66.10
